Time;durP1;ratioP1;P1;durP2;ratioP2;P2;SDS_P1;SDS_P2;PMS_P1;PMS_P2;Temp;Humidity;BMP_temperature;BMP_pressure;BME280_temperature;BME280_humidity;BME280_pressure;Samples;Min_cycle;Max_cycle;Signal;HPM_P1;HPM_P2
2022/11/08 00:02:00;;;;;;;15.40;9.75;;;;;;;9.34;85.86;99209.14;1726178;83;20994;-46
2022/11/08 00:04:26;;;;;;;19.57;10.20;;;;;;;9.36;85.71;99212.53;1726061;83;21007;-48
2022/11/08 00:15:05;;;;;;;14.55;8.60;;;;;;;9.41;85.40;99217.92;1726106;83;20983;-46
2022/11/08 00:17:31;;;;;;;15.38;8.70;;;;;;;9.37;85.24;99215.08;1726223;83;21154;-44
2022/11/08 00:19:57;;;;;;;17.65;9.53;;;;;;;9.40;85.26;99216.24;1726065;83;21038;-45
2022/11/08 00:22:24;;;;;;;12.58;8.45;;;;;;;9.42;85.22;99212.20;1693982;85;20979;-45
2022/11/08 00:24:53;;;;;;;20.97;9.30;;;;;;;9.44;85.06;99211.69;1726416;83;21041;-43
2022/11/08 00:27:22;;;;;;;13.08;8.80;;;;;;;9.47;84.92;99208.04;1726047;83;21511;-49
2022/11/08 00:29:48;;;;;;;17.95;8.75;;;;;;;9.44;84.81;99214.75;1725023;82;21446;-43
2022/11/08 00:32:17;;;;;;;16.40;8.45;;;;;;;9.46;84.82;99215.08;1726061;83;21488;-43
2022/11/08 00:34:43;;;;;;;16.55;8.80;;;;;;;9.50;84.78;99212.66;1726183;83;20998;-44
2022/11/08 00:37:10;;;;;;;17.17;8.68;;;;;;;9.52;84.50;99219.16;1726037;83;21855;-47
2022/11/08 00:39:36;;;;;;;16.52;9.08;;;;;;;9.46;84.38;99218.14;1726098;83;21065;-45
2022/11/08 00:42:02;;;;;;;15.03;8.98;;;;;;;9.47;84.35;99220.69;1726029;83;21042;-44
2022/11/08 00:44:28;;;;;;;12.23;7.85;;;;;;;9.48;84.36;99222.84;1693819;85;21015;-49
2022/11/08 00:46:53;;;;;;;16.42;8.33;;;;;;;9.45;84.32;99223.86;1726001;81;21022;-48
2022/11/08 00:49:19;;;;;;;16.27;8.20;;;;;;;9.45;84.39;99215.98;1726034;83;21051;-45
2022/11/08 00:51:45;;;;;;;14.05;8.48;;;;;;;9.47;84.41;99218.06;1726031;83;20999;-48
2022/11/08 00:54:15;;;;;;;15.32;8.68;;;;;;;9.49;84.19;99217.52;1725831;83;21031;-48
2022/11/08 00:56:42;;;;;;;13.88;9.08;;;;;;;9.44;84.09;99214.75;1725934;83;21031;-46
2022/11/08 00:59:11;;;;;;;15.70;8.27;;;;;;;9.48;84.13;99222.84;1726251;83;21051;-51
2022/11/08 01:01:38;;;;;;;16.57;8.85;;;;;;;9.49;84.12;99214.05;1726061;83;21042;-47
2022/11/08 01:04:04;;;;;;;15.72;8.65;;;;;;;9.47;84.03;99212.81;1726175;83;21456;-47
2022/11/08 01:06:30;;;;;;;15.43;8.63;;;;;;;9.44;84.07;99213.00;1726015;83;21010;-44
2022/11/08 01:08:56;;;;;;;19.85;8.23;;;;;;;9.43;84.30;99219.16;1726122;83;21479;-47
2022/11/08 01:11:24;;;;;;;13.58;8.25;;;;;;;9.46;84.31;99219.45;1726038;83;21026;-47
2022/11/08 01:13:51;;;;;;;16.87;9.08;;;;;;;9.47;84.29;99216.75;1726033;83;21480;-48
2022/11/08 01:16:20;;;;;;;20.60;8.90;;;;;;;9.48;84.21;99214.52;1726072;83;21007;-49
2022/11/08 01:18:48;;;;;;;15.55;8.88;;;;;;;9.49;84.10;99204.87;1726004;83;21059;-43
2022/11/08 01:21:15;;;;;;;16.37;9.43;;;;;;;9.49;84.08;99208.80;1726050;82;21006;-50
2022/11/08 01:23:42;;;;;;;24.50;9.50;;;;;;;9.49;84.11;99208.33;1726243;83;21662;-47
2022/11/08 01:26:12;;;;;;;15.75;8.00;;;;;;;9.51;84.10;99220.06;1726121;83;21015;-44
2022/11/08 01:28:38;;;;;;;17.73;8.43;;;;;;;9.49;84.03;99208.80;1725979;83;21003;-49
2022/11/08 01:31:10;;;;;;;14.65;9.08;;;;;;;9.52;84.06;99210.80;1726163;83;21002;-48
2022/11/08 01:33:37;;;;;;;15.00;8.78;;;;;;;9.49;84.03;99221.45;1726143;83;21046;-43
2022/11/08 01:36:06;;;;;;;17.87;8.40;;;;;;;9.54;84.16;99212.05;1726000;83;21046;-46
2022/11/08 01:38:32;;;;;;;16.15;8.15;;;;;;;9.54;83.94;99216.82;1726044;83;21011;-46
2022/11/08 01:40:58;;;;;;;17.95;8.60;;;;;;;9.54;83.93;99208.94;1726298;83;21002;-46
2022/11/08 01:43:39;;;;;;;17.65;8.93;;;;;;;9.57;83.99;99211.42;1725985;83;21054;-46
2022/11/08 01:46:36;;;;;;;18.48;8.95;;;;;;;9.56;83.89;99207.55;1725444;83;21007;-44
2022/11/08 01:49:14;;;;;;;14.85;9.33;;;;;;;9.53;83.83;99203.33;1727598;82;21062;-43
2022/11/08 01:51:45;;;;;;;;;;;;;;;9.46;83.85;99210.27;1667831;86;21086;-47
2022/11/08 01:54:17;;;;;;;17.32;8.25;;;;;;;9.41;83.98;99209.20;1665231;86;20146;-43
2022/11/08 01:56:43;;;;;;;13.88;8.78;;;;;;;9.38;84.06;99211.98;1664247;86;21547;-45
2022/11/08 01:59:12;;;;;;;14.90;9.03;;;;;;;9.33;84.41;99216.17;1665691;86;21022;-46
2022/11/08 02:01:38;;;;;;;21.52;9.20;;;;;;;9.33;84.23;99213.55;1665421;86;21504;-46
2022/11/08 02:04:05;;;;;;;16.60;9.18;;;;;;;9.26;84.66;99211.30;1665484;86;21034;-43
2022/11/08 02:06:34;;;;;;;17.30;9.60;;;;;;;9.26;84.64;99212.61;1665623;86;21035;-41
2022/11/08 02:09:03;;;;;;;17.82;9.35;;;;;;;9.25;84.60;99209.14;1665505;86;21524;-49
2022/11/08 02:11:29;;;;;;;14.75;8.35;;;;;;;9.22;84.74;99204.91;1665427;86;20991;-45
2022/11/08 02:13:56;;;;;;;14.67;9.03;;;;;;;9.20;84.90;99198.03;1665760;86;21058;-45
2022/11/08 02:16:21;;;;;;;14.13;9.08;;;;;;;9.18;85.02;99196.79;1665326;86;21058;-46
2022/11/08 02:18:48;;;;;;;16.50;9.45;;;;;;;9.16;84.91;99197.34;1665691;86;21054;-44
2022/11/08 02:21:34;;;;;;;15.13;9.57;;;;;;;9.16;85.15;99193.87;1665726;86;21026;-45
2022/11/08 02:24:07;;;;;;;16.43;9.03;;;;;;;9.08;85.74;99196.89;1665570;86;20999;-48
2022/11/08 02:26:34;;;;;;;19.00;10.38;;;;;;;9.08;85.66;99198.64;1665533;86;21070;-44
2022/11/08 02:29:30;;;;;;;;;;;;;;;9.08;85.66;99196.02;1696922;83;21602;-45
2022/11/08 02:31:58;;;;;;;17.37;9.65;;;;;;;9.06;86.14;99202.69;1728377;83;20117;-45
2022/11/08 02:34:48;;;;;;;18.52;9.70;;;;;;;9.07;85.64;99196.49;1728404;83;21007;-44
2022/11/08 02:37:17;;;;;;;17.92;10.15;;;;;;;9.06;85.87;99194.81;1635731;87;21076;-45
2022/11/08 02:39:44;;;;;;;17.75;10.25;;;;;;;9.03;86.04;99202.36;1635860;88;21035;-45
2022/11/08 02:42:19;;;;;;;18.82;9.73;;;;;;;9.01;86.43;99198.97;1692742;80;21071;-46
2022/11/08 02:44:47;;;;;;;20.10;10.48;;;;;;;9.05;86.41;99200.97;1694267;85;21051;-44
2022/11/08 02:47:14;;;;;;;19.07;10.00;;;;;;;9.08;86.14;99197.33;1716224;83;21091;-42
2022/11/08 02:49:40;;;;;;;18.30;9.88;;;;;;;9.08;86.02;99194.27;1716602;83;20998;-45
2022/11/08 02:52:06;;;;;;;20.55;10.18;;;;;;;9.08;86.06;99186.84;1694528;85;21023;-44
2022/11/08 02:54:32;;;;;;;17.25;10.08;;;;;;;9.11;86.03;99189.31;1716624;83;20980;-43
2022/11/08 02:56:58;;;;;;;19.10;10.15;;;;;;;9.13;86.41;99185.70;1716549;83;21485;-44
2022/11/08 02:59:23;;;;;;;20.25;10.40;;;;;;;9.11;86.05;99188.84;1716610;83;21489;-43
2022/11/08 03:01:49;;;;;;;23.00;11.22;;;;;;;9.12;86.05;99188.41;1716665;83;21008;-43
2022/11/08 03:04:15;;;;;;;16.20;10.30;;;;;;;9.14;86.02;99183.45;1716558;83;21489;-45
2022/11/08 03:06:42;;;;;;;27.50;10.70;;;;;;;9.13;85.98;99186.15;1716564;82;20992;-46
2022/11/08 03:09:08;;;;;;;16.07;10.03;;;;;;;9.17;85.94;99193.80;1716696;83;21008;-46
2022/11/08 03:11:34;;;;;;;22.35;10.93;;;;;;;9.16;86.17;99197.34;1716508;83;21667;-43
2022/11/08 03:13:59;;;;;;;19.05;10.68;;;;;;;9.19;86.13;99199.81;1729725;83;21014;-45
2022/11/08 03:16:25;;;;;;;19.52;10.95;;;;;;;9.20;85.99;99204.14;1763800;81;21038;-44
2022/11/08 03:18:51;;;;;;;19.32;10.98;;;;;;;9.17;86.07;99206.92;1757881;82;21046;-46
2022/11/08 03:21:17;;;;;;;19.67;10.72;;;;;;;9.20;86.09;99205.45;1757962;81;21006;-43
2022/11/08 03:23:42;;;;;;;16.20;9.98;;;;;;;9.21;85.84;99212.86;1758008;81;20968;-46
2022/11/08 03:26:08;;;;;;;19.40;10.75;;;;;;;9.21;85.71;99212.38;1757826;81;21607;-42
2022/11/08 03:28:34;;;;;;;20.27;9.75;;;;;;;9.18;85.72;99208.59;1757937;81;20971;-43
2022/11/08 03:31:00;;;;;;;21.40;10.85;;;;;;;9.06;86.12;99202.69;1758066;81;20987;-43
2022/11/08 03:33:25;;;;;;;19.90;10.13;;;;;;;9.03;86.42;99205.45;1758044;81;20995;-47
2022/11/08 03:35:52;;;;;;;16.73;10.15;;;;;;;9.02;86.19;99206.36;1758190;81;20971;-45
2022/11/08 03:38:17;;;;;;;22.58;10.75;;;;;;;9.00;86.38;99212.16;1758166;81;21002;-46
2022/11/08 03:40:44;;;;;;;18.67;10.03;;;;;;;8.99;86.31;99211.78;1758005;81;20995;-44
2022/11/08 03:43:10;;;;;;;17.57;10.13;;;;;;;8.99;86.40;99207.38;1751684;81;21515;-44
2022/11/08 03:45:38;;;;;;;19.67;10.70;;;;;;;8.96;86.55;99211.93;1750082;82;21008;-44
2022/11/08 03:48:04;;;;;;;18.42;10.60;;;;;;;8.93;86.47;99209.02;1750753;82;21003;-43
2022/11/08 03:50:30;;;;;;;20.52;10.28;;;;;;;8.95;86.34;99216.33;1750574;82;21000;-45
2022/11/08 03:52:56;;;;;;;21.85;10.20;;;;;;;8.90;86.51;99214.87;1750619;82;21002;-42
2022/11/08 03:55:25;;;;;;;15.93;10.05;;;;;;;8.90;86.49;99216.18;1750543;82;21464;-43
2022/11/08 03:57:52;;;;;;;18.62;10.55;;;;;;;8.77;87.42;99219.40;1750636;82;20996;-43
2022/11/08 04:00:22;;;;;;;23.32;11.15;;;;;;;8.81;86.99;99213.55;1750598;80;21006;-44
2022/11/08 04:02:48;;;;;;;15.98;10.13;;;;;;;8.78;86.78;99214.52;1750511;82;21000;-42
2022/11/08 04:05:15;;;;;;;20.27;12.75;;;;;;;8.77;87.04;99219.88;1750507;82;21056;-46
2022/11/08 04:07:41;;;;;;;18.82;11.30;;;;;;;8.71;87.40;99208.35;1750624;82;20960;-47
2022/11/08 04:10:09;;;;;;;19.42;11.43;;;;;;;8.71;87.42;99213.59;1750610;82;21007;-46
2022/11/08 04:15:27;;;;;;;18.52;11.48;;;;;;;8.67;87.58;99214.68;1750580;82;21068;-44
2022/11/08 04:23:27;;;;;;;20.35;10.98;;;;;;;8.45;88.30;99205.22;1750775;82;21043;-43
2022/11/08 04:25:57;;;;;;;26.13;11.17;;;;;;;8.42;88.29;99210.60;1750826;82;21536;-44
2022/11/08 04:28:26;;;;;;;20.08;11.25;;;;;;;8.39;88.20;99208.95;1749385;82;20999;-44
2022/11/08 04:30:58;;;;;;;19.92;11.00;;;;;;;8.39;88.12;99212.89;1750476;82;21085;-42
2022/11/08 04:33:25;;;;;;;20.10;10.70;;;;;;;8.33;88.39;99213.19;1750611;82;21533;-45
2022/11/08 04:35:52;;;;;;;23.63;10.80;;;;;;;8.30;88.50;99208.09;1750786;82;20995;-43
2022/11/08 04:38:18;;;;;;;22.85;11.15;;;;;;;8.30;88.50;99209.40;1750809;82;21003;-46
2022/11/08 04:40:44;;;;;;;25.27;11.20;;;;;;;8.27;88.59;99202.98;1750509;82;21575;-45
2022/11/08 04:43:10;;;;;;;22.00;9.95;;;;;;;8.25;88.76;99208.29;1750353;82;21451;-47
2022/11/08 04:45:36;;;;;;;26.45;11.73;;;;;;;8.21;88.66;99203.28;1750494;82;20990;-46
2022/11/08 04:48:02;;;;;;;28.38;12.58;;;;;;;8.16;88.94;99201.33;1750510;82;21108;-45
2022/11/08 04:50:28;;;;;;;20.65;10.98;;;;;;;8.16;88.97;99203.95;1750505;82;21011;-45
2022/11/08 04:52:55;;;;;;;18.67;11.25;;;;;;;8.10;88.44;99201.63;1750670;82;21039;-45
2022/11/08 04:55:22;;;;;;;20.90;10.72;;;;;;;8.08;88.88;99197.30;1750664;82;21350;-46
2022/11/08 04:57:49;;;;;;;24.23;11.93;;;;;;;8.03;88.96;99202.37;1750803;82;21478;-44
2022/11/08 05:00:16;;;;;;;24.33;12.63;;;;;;;7.95;89.77;99207.97;1750988;82;21355;-46
2022/11/08 05:02:42;;;;;;;20.77;11.65;;;;;;;7.98;89.62;99206.50;1750623;82;21003;-45
2022/11/08 05:05:08;;;;;;;21.02;12.18;;;;;;;7.88;90.00;99208.70;1750540;82;21030;-43
2022/11/08 05:07:34;;;;;;;20.90;12.40;;;;;;;7.92;89.44;99209.41;1750744;82;20983;-45
2022/11/08 05:10:00;;;;;;;29.10;13.00;;;;;;;7.93;89.31;99207.63;1750490;82;21000;-45
2022/11/08 05:12:26;;;;;;;23.57;12.35;;;;;;;7.87;89.71;99210.07;1750475;82;20999;-48
2022/11/08 05:14:52;;;;;;;20.90;11.80;;;;;;;7.85;89.73;99210.60;1750639;82;20988;-47
2022/11/08 05:17:17;;;;;;;22.82;12.05;;;;;;;7.87;89.66;99216.61;1750511;82;20988;-43
2022/11/08 05:25:11;;;;;;;22.10;12.68;;;;;;;7.83;89.77;99220.30;1750472;82;21655;-44
2022/11/08 05:27:37;;;;;;;22.52;12.13;;;;;;;7.80;89.76;99221.73;1750548;82;20991;-47
2022/11/08 05:30:04;;;;;;;21.90;12.68;;;;;;;7.82;89.74;99226.44;1750480;82;21030;-43
2022/11/08 05:32:30;;;;;;;22.62;12.43;;;;;;;7.82;90.04;99226.44;1750646;82;21502;-45
2022/11/08 05:34:56;;;;;;;24.67;12.40;;;;;;;7.74;90.31;99229.41;1750514;82;21512;-45
2022/11/08 05:37:21;;;;;;;24.75;12.73;;;;;;;7.79;90.16;99229.22;1750446;82;21003;-45
2022/11/08 05:39:47;;;;;;;24.12;12.07;;;;;;;7.78;90.32;99224.89;1750296;82;21035;-46
2022/11/08 05:42:13;;;;;;;21.30;12.70;;;;;;;7.77;90.27;99220.12;1751412;81;21031;-45
2022/11/08 05:44:39;;;;;;;24.72;13.03;;;;;;;7.77;90.24;99229.75;1759532;81;21038;-47
2022/11/08 05:47:04;;;;;;;25.70;13.43;;;;;;;7.74;90.13;99224.64;1759561;81;21421;-47
2022/11/08 05:49:30;;;;;;;23.65;12.20;;;;;;;7.73;90.04;99226.42;1759555;81;20994;-45
2022/11/08 05:51:56;;;;;;;21.65;12.90;;;;;;;7.72;89.86;99225.17;1759493;81;21029;-44
2022/11/08 05:54:21;;;;;;;24.72;12.98;;;;;;;7.59;90.67;99224.41;1759629;81;20999;-47
2022/11/08 05:56:47;;;;;;;26.12;12.28;;;;;;;7.58;90.80;99230.54;1731835;81;21515;-44
2022/11/08 05:59:13;;;;;;;29.40;13.08;;;;;;;7.59;90.45;99227.02;1759583;81;21004;-42
2022/11/08 06:01:39;;;;;;;28.45;12.78;;;;;;;7.60;90.86;99237.86;1759495;81;20998;-46
2022/11/08 06:04:04;;;;;;;22.93;12.05;;;;;;;7.60;90.68;99235.24;1759521;81;21430;-47
2022/11/08 06:06:30;;;;;;;24.37;13.70;;;;;;;7.58;90.76;99234.47;1759484;81;21034;-46
2022/11/08 06:08:56;;;;;;;23.87;13.00;;;;;;;7.59;90.56;99236.18;1759528;81;21002;-43
2022/11/08 06:11:25;;;;;;;24.87;13.00;;;;;;;7.58;90.76;99238.39;1759595;81;21034;-48
2022/11/08 06:13:53;;;;;;;22.55;12.63;;;;;;;7.62;90.64;99235.18;1759518;81;21042;-46
2022/11/08 06:16:20;;;;;;;;;;;;;;;7.60;90.71;99236.55;1762175;81;21148;-47
2022/11/08 06:18:46;;;;;;;21.87;12.05;;;;;;;7.54;90.92;99240.76;1759533;81;20138;-47
2022/11/08 06:21:16;;;;;;;24.18;12.18;;;;;;;7.55;90.80;99242.47;1759487;81;21475;-45
2022/11/08 06:23:43;;;;;;;24.30;12.63;;;;;;;7.57;90.71;99240.63;1759516;81;21476;-45
2022/11/08 06:26:10;;;;;;;23.92;13.15;;;;;;;7.60;90.69;99241.78;1759456;81;20990;-42
2022/11/08 06:28:36;;;;;;;27.67;12.88;;;;;;;7.61;90.50;99248.73;1759644;81;21461;-42
2022/11/08 06:31:03;;;;;;;26.60;12.73;;;;;;;7.60;90.62;99245.71;1759541;81;21539;-45
2022/11/08 06:33:30;;;;;;;21.33;11.97;;;;;;;7.61;90.48;99242.19;1759611;81;21527;-42
2022/11/08 06:35:56;;;;;;;32.78;12.10;;;;;;;7.63;90.44;99243.44;1759443;81;21527;-43
2022/11/08 06:38:21;;;;;;;20.77;12.15;;;;;;;7.65;90.36;99245.52;1759504;81;20963;-45
2022/11/08 06:40:48;;;;;;;21.25;11.57;;;;;;;7.68;90.15;99252.78;1759529;81;21034;-45
2022/11/08 06:43:13;;;;;;;20.80;11.40;;;;;;;7.68;90.25;99244.93;1757803;81;21066;-43
2022/11/08 06:45:40;;;;;;;20.95;11.48;;;;;;;7.73;90.14;99250.41;1756278;82;21022;-42
2022/11/08 06:48:07;;;;;;;27.48;12.28;;;;;;;7.76;90.04;99251.59;1756002;81;21531;-45
2022/11/08 06:50:34;;;;;;;24.47;12.03;;;;;;;7.77;90.42;99257.23;1755552;81;21507;-44
2022/11/08 06:53:03;;;;;;;22.75;11.75;;;;;;;7.77;90.42;99257.23;1756474;82;20971;-45
2022/11/08 06:55:30;;;;;;;23.62;11.70;;;;;;;7.84;89.85;99258.63;1756293;81;21010;-46
2022/11/08 06:57:56;;;;;;;24.43;11.93;;;;;;;7.82;90.13;99252.19;1756415;82;20975;-44
2022/11/08 07:00:23;;;;;;;16.95;11.85;;;;;;;7.84;89.90;99250.78;1756371;82;21003;-45
2022/11/08 07:02:57;;;;;;;27.42;17.00;;;;;;;7.88;90.14;99253.20;1755466;82;20979;-46
2022/11/08 07:05:24;;;;;;;30.77;12.50;;;;;;;7.94;89.94;99251.23;1755247;81;21539;-46
2022/11/08 07:07:53;;;;;;;25.02;12.40;;;;;;;7.96;89.84;99248.92;1756324;81;21038;-47
2022/11/08 07:10:25;;;;;;;22.27;12.68;;;;;;;7.99;90.04;99250.11;1725941;82;20995;-46
2022/11/08 07:13:09;;;;;;;22.62;12.33;;;;;;;8.05;89.70;99248.97;1724651;83;21019;-45
2022/11/08 07:15:36;;;;;;;21.85;11.65;;;;;;;8.07;89.63;99249.28;1724621;83;20984;-44
2022/11/08 07:18:06;;;;;;;23.95;11.28;;;;;;;8.14;89.53;99250.33;1724800;83;20998;-46
2022/11/08 07:20:32;;;;;;;29.67;12.68;;;;;;;8.19;89.34;99244.42;1724682;83;20968;-46
2022/11/08 07:22:58;;;;;;;22.48;11.35;;;;;;;8.21;89.16;99249.13;1724677;83;21646;-52
2022/11/08 07:25:25;;;;;;;20.82;11.45;;;;;;;8.22;89.20;99249.06;1742270;80;20958;-48
2022/11/08 07:28:01;;;;;;;26.90;11.85;;;;;;;8.26;89.00;99240.13;1746510;81;21417;-43
2022/11/08 07:30:28;;;;;;;24.90;11.68;;;;;;;8.31;88.93;99241.68;1746425;81;21528;-46
2022/11/08 07:32:55;;;;;;;20.92;11.75;;;;;;;8.35;88.95;99242.78;1746616;82;20993;-45
2022/11/08 07:35:21;;;;;;;22.87;11.38;;;;;;;8.35;88.93;99248.47;1746573;82;21009;-47
2022/11/08 07:37:47;;;;;;;27.77;12.80;;;;;;;8.39;88.78;99253.51;1746394;82;21036;-49
2022/11/08 07:40:13;;;;;;;18.02;11.70;;;;;;;8.46;88.75;99259.34;1746387;81;21632;-45
2022/11/08 07:42:40;;;;;;;24.30;11.22;;;;;;;8.51;88.73;99261.73;1746034;82;21535;-49
2022/11/08 07:45:09;;;;;;;21.87;10.20;;;;;;;8.55;88.40;99256.73;1744290;81;20994;-44
2022/11/08 07:47:34;;;;;;;22.05;10.70;;;;;;;8.60;88.31;99256.92;1743993;82;21013;-46
2022/11/08 07:50:00;;;;;;;16.27;9.65;;;;;;;8.65;88.20;99261.46;1744067;81;21009;-44
2022/11/08 07:52:26;;;;;;;17.62;10.20;;;;;;;8.68;87.91;99264.41;1744035;81;21123;-46
2022/11/08 07:54:52;;;;;;;15.60;9.95;;;;;;;8.73;87.94;99269.42;1744003;81;21045;-49
2022/11/08 07:57:18;;;;;;;22.13;10.85;;;;;;;8.79;87.91;99271.30;1743264;81;22005;-46
2022/11/08 07:59:47;;;;;;;23.32;9.95;;;;;;;8.86;87.89;99274.48;1747901;81;21615;-44
2022/11/08 08:02:14;;;;;;;20.70;10.08;;;;;;;8.89;87.74;99276.09;1725597;81;20941;-43
2022/11/08 08:04:40;;;;;;;15.23;9.25;;;;;;;8.91;87.54;99265.06;1752595;81;21004;-51
2022/11/08 08:07:06;;;;;;;18.62;8.95;;;;;;;8.91;87.42;99264.59;1749052;81;21350;-39
2022/11/08 08:09:33;;;;;;;18.23;9.58;;;;;;;8.96;87.44;99259.98;1727244;82;21465;-42
2022/11/08 08:12:00;;;;;;;15.63;9.00;;;;;;;9.04;87.34;99264.88;1715167;82;20998;-46
2022/11/08 08:14:26;;;;;;;15.13;9.13;;;;;;;8.98;87.02;99264.69;1726651;83;21057;-44
2022/11/08 08:16:51;;;;;;;17.32;9.53;;;;;;;9.10;86.95;99252.75;1727696;82;20987;-43
2022/11/08 08:19:17;;;;;;;15.83;9.63;;;;;;;9.17;87.04;99260.70;1715954;81;20980;-41
2022/11/08 08:21:43;;;;;;;21.75;9.65;;;;;;;9.26;87.12;99256.77;1708944;84;21454;-47
2022/11/08 08:24:09;;;;;;;16.55;8.60;;;;;;;9.44;87.06;99257.62;1709173;84;21436;-43
2022/11/08 08:26:35;;;;;;;21.87;9.10;;;;;;;9.76;86.56;99262.48;1709025;84;21012;-43
2022/11/08 08:29:01;;;;;;;21.05;9.30;;;;;;;10.15;86.34;99256.06;1709230;84;20961;-46
2022/11/08 08:31:27;;;;;;;16.62;9.73;;;;;;;10.58;85.19;99253.34;1709028;84;21067;-44
2022/11/08 08:33:53;;;;;;;15.85;8.30;;;;;;;11.08;84.59;99255.73;1709228;84;20984;-39
2022/11/08 08:36:19;;;;;;;12.10;7.17;;;;;;;11.55;81.17;99255.64;1712465;83;20999;-46
2022/11/08 08:38:44;;;;;;;15.90;8.40;;;;;;;12.06;78.44;99252.11;1727623;83;21036;-43
2022/11/08 08:41:10;;;;;;;17.40;8.08;;;;;;;12.49;77.75;99248.94;1727890;82;20981;-46
2022/11/08 08:43:36;;;;;;;15.80;7.85;;;;;;;12.70;75.58;99254.25;1723645;82;21545;-41
2022/11/08 08:46:04;;;;;;;12.25;7.35;;;;;;;12.87;73.22;99254.02;1740588;82;21509;-48
2022/11/08 08:48:32;;;;;;;12.90;7.62;;;;;;;12.94;75.22;99256.63;1787579;80;20982;-43
2022/11/08 08:50:58;;;;;;;12.25;6.72;;;;;;;12.94;74.41;99252.66;1787480;80;20966;-44
2022/11/08 08:53:24;;;;;;;13.25;7.58;;;;;;;13.04;73.83;99253.77;1784728;80;21026;-41
2022/11/08 08:55:51;;;;;;;17.90;8.45;;;;;;;13.05;72.82;99251.48;1787861;80;21042;-44
2022/11/08 08:58:18;;;;;;;14.43;7.42;;;;;;;12.96;72.56;99248.61;1787820;80;21022;-44
2022/11/08 09:00:44;;;;;;;20.68;7.28;;;;;;;12.83;73.27;99245.45;1787460;80;20982;-45
2022/11/08 09:03:11;;;;;;;19.95;8.28;;;;;;;12.75;73.49;99251.71;1787603;80;21476;-47
2022/11/08 09:05:40;;;;;;;15.48;9.35;;;;;;;12.64;73.74;99248.45;1787722;80;21050;-47
2022/11/08 09:08:05;;;;;;;15.70;7.78;;;;;;;12.54;73.90;99247.34;1787164;80;21011;-43
2022/11/08 09:10:31;;;;;;;18.62;8.63;;;;;;;12.40;74.07;99249.52;1786854;78;20987;-49
2022/11/08 09:12:57;;;;;;;15.43;8.38;;;;;;;12.31;74.20;99249.27;1787947;79;20990;-46
2022/11/08 09:15:23;;;;;;;16.82;8.45;;;;;;;12.21;74.41;99245.90;1787590;80;20979;-46
2022/11/08 09:17:48;;;;;;;13.25;8.25;;;;;;;12.14;74.76;99244.59;1783136;79;21044;-44
2022/11/08 09:20:14;;;;;;;13.88;7.87;;;;;;;12.06;74.90;99247.70;1756403;81;21021;-46
2022/11/08 09:22:40;;;;;;;19.25;8.23;;;;;;;12.03;75.40;99248.37;1756128;81;21035;-47
2022/11/08 09:25:06;;;;;;;21.82;8.63;;;;;;;11.99;75.69;99247.71;1761594;79;20926;-44
2022/11/08 09:27:32;;;;;;;19.62;10.38;;;;;;;11.95;75.42;99249.30;1777619;80;20993;-46
2022/11/08 09:29:59;;;;;;;16.90;8.98;;;;;;;11.93;75.77;99240.64;1777513;80;21017;-42
2022/11/08 09:32:28;;;;;;;18.98;8.13;;;;;;;11.92;76.21;99238.48;1777649;81;20984;-43
2022/11/08 09:34:55;;;;;;;16.82;7.78;;;;;;;11.89;75.94;99246.06;1777537;80;21498;-47
2022/11/08 09:37:23;;;;;;;15.72;8.50;;;;;;;11.89;76.11;99243.42;1777721;81;21470;-43
2022/11/08 09:39:49;;;;;;;20.20;8.25;;;;;;;11.90;76.18;99239.89;1779966;79;20979;-43
2022/11/08 09:42:41;;;;;;;15.50;8.43;;;;;;;11.95;76.23;99242.71;1804702;78;21405;-44
2022/11/08 09:45:24;;;;;;;17.98;7.58;;;;;;;11.97;76.66;99247.41;1747375;80;21517;-41
2022/11/08 09:48:05;;;;;;;14.55;7.97;;;;;;;11.99;76.12;99248.16;1746317;81;20965;-45
2022/11/08 09:50:41;;;;;;;19.55;7.53;;;;;;;11.98;76.02;99239.41;1746045;81;21020;-46
2022/11/08 09:53:33;;;;;;;18.12;7.72;;;;;;;11.99;76.34;99237.17;1746018;81;21035;-46
2022/11/08 09:56:29;;;;;;;13.98;7.70;;;;;;;12.04;76.36;99243.45;1745944;82;21473;-44
2022/11/08 09:59:03;;;;;;;18.92;7.50;;;;;;;12.09;76.27;99242.70;1746023;81;21517;-46
2022/11/08 10:01:33;;;;;;;18.65;8.13;;;;;;;12.13;76.20;99241.56;1746518;81;20992;-47
2022/11/08 10:04:13;;;;;;;17.30;7.60;;;;;;;12.15;75.86;99235.75;1745071;82;20964;-48
2022/11/08 10:07:04;;;;;;;15.08;8.05;;;;;;;12.23;76.28;99236.09;1745973;82;21112;-46
2022/11/08 10:10:01;;;;;;;15.05;7.10;;;;;;;12.26;76.45;99239.87;1745994;81;21022;-47
2022/11/08 10:12:51;;;;;;;;;;;;;;;12.33;76.04;99234.20;1748261;81;21448;-42
2022/11/08 10:15:28;;;;;;;14.53;6.92;;;;;;;12.38;76.60;99232.12;1744534;82;20371;-42
2022/11/08 10:18:21;;;;;;;15.38;6.30;;;;;;;12.39;76.12;99227.23;1733325;82;21011;-41
2022/11/08 10:21:27;;;;;;;10.68;6.28;;;;;;;12.41;75.78;99227.98;1726751;82;20983;-46
2022/11/08 10:24:23;;;;;;;12.93;7.07;;;;;;;12.42;75.29;99225.70;1745823;81;20994;-48
2022/11/08 10:26:52;;;;;;;10.80;6.25;;;;;;;12.44;75.46;99223.80;1744416;82;20998;-46
2022/11/08 10:29:26;;;;;;;16.55;8.30;;;;;;;12.43;75.23;99228.72;1753483;81;20952;-41
2022/11/08 10:32:06;;;;;;;10.85;6.00;;;;;;;12.42;75.26;99228.33;1773416;81;20968;-42
2022/11/08 10:34:37;;;;;;;11.43;6.03;;;;;;;12.44;75.57;99229.95;1775943;81;21022;-42
2022/11/08 10:37:07;;;;;;;11.15;6.28;;;;;;;12.47;75.62;99220.98;1776062;81;20967;-45
2022/11/08 10:39:38;;;;;;;11.45;5.97;;;;;;;12.47;75.41;99218.34;1768703;81;21503;-44
2022/11/08 10:42:12;;;;;;;8.80;4.90;;;;;;;12.50;75.54;99223.42;1741608;81;20995;-45
2022/11/08 10:44:40;;;;;;;12.95;5.20;;;;;;;12.50;75.03;99219.47;1774098;80;21043;-46
2022/11/08 10:47:17;;;;;;;8.83;5.58;;;;;;;12.48;74.37;99217.41;1785660;80;20959;-44
2022/11/08 10:49:43;;;;;;;12.53;5.62;;;;;;;12.50;74.50;99215.52;1780591;80;20940;-45
2022/11/08 10:52:17;;;;;;;13.48;5.28;;;;;;;12.55;74.90;99219.16;1766157;79;20981;-46
2022/11/08 10:54:52;;;;;;;8.00;5.00;;;;;;;12.62;74.83;99214.70;1785214;80;20959;-45
2022/11/08 10:57:38;;;;;;;7.55;4.80;;;;;;;12.71;74.55;99217.22;1785317;80;20979;-48
2022/11/08 11:00:24;;;;;;;6.83;4.53;;;;;;;12.76;74.25;99206.38;1785531;80;21422;-50
2022/11/08 11:02:58;;;;;;;10.78;5.20;;;;;;;12.78;72.57;99212.39;1785959;80;21488;-48
2022/11/08 11:05:34;;;;;;;8.65;4.40;;;;;;;12.86;73.97;99209.63;1785805;80;21445;-46
2022/11/08 11:08:08;;;;;;;15.48;4.53;;;;;;;12.93;73.88;99214.00;1785784;80;20991;-50
2022/11/08 11:10:44;;;;;;;8.13;4.95;;;;;;;12.94;73.42;99206.95;1784539;80;21015;-48
2022/11/08 11:13:23;;;;;;;6.10;4.25;;;;;;;12.98;73.43;99199.20;1786200;80;21034;-43
2022/11/08 11:16:01;;;;;;;7.92;3.65;;;;;;;13.00;73.14;99196.81;1785928;80;21050;-46
2022/11/08 11:18:35;;;;;;;6.92;3.85;;;;;;;13.01;72.40;99194.56;1763625;80;20979;-44
2022/11/08 11:21:17;;;;;;;7.72;4.22;;;;;;;13.01;72.27;99191.09;1754551;81;20979;-46
2022/11/08 11:23:54;;;;;;;8.85;4.47;;;;;;;13.03;72.28;99199.74;1754526;82;21006;-46
2022/11/08 11:26:33;;;;;;;6.28;4.10;;;;;;;13.03;72.48;99199.26;1754535;82;20991;-47
2022/11/08 11:29:07;;;;;;;10.25;4.17;;;;;;;13.03;72.57;99193.98;1754549;82;21022;-50
2022/11/08 11:31:41;;;;;;;7.40;4.25;;;;;;;13.05;72.52;99201.31;1754492;82;20967;-46
2022/11/08 11:34:21;;;;;;;9.60;4.50;;;;;;;13.04;72.63;99206.25;1753857;82;21532;-47
2022/11/08 11:37:10;;;;;;;7.78;4.17;;;;;;;13.06;72.57;99206.98;1755098;82;21003;-45
2022/11/08 11:40:02;;;;;;;7.75;3.72;;;;;;;13.11;72.48;99201.86;1754974;82;21006;-48
2022/11/08 11:43:24;;;;;;;5.50;3.30;;;;;;;13.14;72.52;99197.70;1753892;82;21013;-48
2022/11/08 11:46:25;;;;;;;5.40;3.70;;;;;;;13.19;72.70;99194.28;1766697;81;21018;-42
2022/11/08 11:49:05;;;;;;;9.33;4.55;;;;;;;13.23;72.76;99183.88;1748222;81;21597;-47
2022/11/08 11:51:31;;;;;;;7.47;3.90;;;;;;;13.29;72.66;99183.93;1735304;81;21084;-45
2022/11/08 11:53:59;;;;;;;8.78;4.05;;;;;;;13.33;72.38;99186.75;1765874;81;21073;-45
2022/11/08 11:57:10;;;;;;;11.90;4.00;;;;;;;13.38;72.79;99178.89;1765143;81;21527;-44
2022/11/08 12:00:04;;;;;;;8.03;3.50;;;;;;;13.44;72.89;99191.69;1721163;81;20998;-45
2022/11/08 12:02:47;;;;;;;7.37;3.42;;;;;;;13.49;72.10;99179.47;1764876;81;21070;-45
2022/11/08 12:05:53;;;;;;;5.78;2.95;;;;;;;13.49;71.44;99180.79;1766905;81;20970;-48